createdAt,value
2019-05-23T00:00:09.456Z,11.43
2019-05-23T00:01:15.005Z,11.35
2019-05-23T00:02:20.699Z,11.43
2019-05-23T00:03:26.096Z,11.34
2019-05-23T00:04:31.649Z,11.38
2019-05-23T00:05:37.190Z,11.23
2019-05-23T00:06:42.744Z,11.34
2019-05-23T00:07:48.279Z,11.33
2019-05-23T00:08:53.830Z,11.21
2019-05-23T00:09:59.379Z,11.31
2019-05-23T00:11:04.921Z,11.38
2019-05-23T00:12:10.464Z,11.35
2019-05-23T00:13:16.014Z,11.31
2019-05-23T00:14:21.566Z,11.30
2019-05-23T00:15:27.111Z,11.27
2019-05-23T00:16:32.663Z,11.30
2019-05-23T00:17:38.209Z,11.28
2019-05-23T00:18:43.770Z,11.28
2019-05-23T00:19:49.298Z,11.23
2019-05-23T00:20:54.845Z,11.23
2019-05-23T00:22:00.391Z,11.23
2019-05-23T00:23:05.943Z,11.31
2019-05-23T00:24:11.489Z,11.27
2019-05-23T00:25:17.090Z,11.27
2019-05-23T00:26:22.578Z,11.27
2019-05-23T00:27:28.120Z,11.24
2019-05-23T00:28:33.669Z,11.15
2019-05-23T00:29:40.515Z,11.33
2019-05-23T00:30:44.765Z,11.27
2019-05-23T00:31:50.411Z,11.30
2019-05-23T00:32:55.861Z,11.23
2019-05-23T00:34:01.425Z,11.30
2019-05-23T00:35:06.950Z,11.20
2019-05-23T00:36:12.501Z,11.24
2019-05-23T00:37:18.045Z,11.26
2019-05-23T00:38:23.593Z,11.27
2019-05-23T00:39:29.143Z,11.18
2019-05-23T00:40:34.687Z,11.27
2019-05-23T00:41:40.228Z,11.18
2019-05-23T00:42:45.779Z,11.24
2019-05-23T00:43:51.329Z,11.27
2019-05-23T00:44:56.875Z,11.26
2019-05-23T00:46:02.417Z,11.30
2019-05-23T00:47:07.964Z,11.21
2019-05-23T00:48:13.512Z,11.21
2019-05-23T00:49:19.059Z,11.15
2019-05-23T00:50:24.607Z,11.35
2019-05-23T00:51:30.162Z,11.26
2019-05-23T00:52:35.697Z,11.13
2019-05-23T00:53:41.256Z,11.12
2019-05-23T00:54:46.802Z,11.30
2019-05-23T00:55:52.340Z,11.24
2019-05-23T00:56:57.894Z,11.15
2019-05-23T00:58:03.434Z,11.24
2019-05-23T00:59:09.022Z,11.20
2019-05-23T01:00:14.581Z,11.21
2019-05-23T01:01:20.136Z,11.09
2019-05-23T01:02:25.621Z,11.21
2019-05-23T01:03:31.196Z,11.16
2019-05-23T01:04:36.768Z,11.16
2019-05-23T01:05:42.262Z,11.13
2019-05-23T01:06:47.802Z,11.13
2019-05-23T01:07:53.349Z,11.15
2019-05-23T01:08:58.896Z,11.20
2019-05-23T01:10:04.449Z,11.15
2019-05-23T01:11:09.993Z,11.12
2019-05-23T01:12:15.537Z,11.21
2019-05-23T01:13:21.085Z,11.20
2019-05-23T01:14:26.636Z,11.03
2019-05-23T01:15:32.175Z,11.21
2019-05-23T01:16:37.730Z,11.13
2019-05-23T01:17:43.269Z,11.16
2019-05-23T01:18:48.816Z,11.18
2019-05-23T01:19:54.379Z,11.10
2019-05-23T01:20:59.919Z,11.02
2019-05-23T01:22:05.466Z,11.05
2019-05-23T01:23:11.003Z,11.00
2019-05-23T01:24:16.556Z,11.12
2019-05-23T01:25:22.108Z,11.03
2019-05-23T01:26:27.648Z,11.08
2019-05-23T01:27:33.194Z,11.05
2019-05-23T01:28:38.743Z,10.98
2019-05-23T01:29:49.564Z,11.08
2019-05-23T01:30:49.834Z,11.05
2019-05-23T01:31:55.447Z,10.97
2019-05-23T01:33:00.921Z,11.05
2019-05-23T01:34:06.472Z,11.05
2019-05-23T01:35:12.025Z,11.06
2019-05-23T01:36:17.565Z,11.03
2019-05-23T01:37:23.116Z,10.98
2019-05-23T01:38:28.658Z,10.97
2019-05-23T01:39:34.205Z,10.88
2019-05-23T01:40:39.751Z,10.92
2019-05-23T01:41:45.307Z,10.90
2019-05-23T01:42:50.844Z,10.92
2019-05-23T01:43:56.401Z,10.90
2019-05-23T01:45:01.941Z,10.92
2019-05-23T01:46:07.487Z,10.80
2019-05-23T01:47:13.025Z,10.83
2019-05-23T01:48:18.618Z,10.90
2019-05-23T01:49:24.118Z,10.91
2019-05-23T01:50:29.665Z,10.90
2019-05-23T01:51:35.213Z,10.90
2019-05-23T01:52:40.761Z,10.84
2019-05-23T01:53:46.329Z,10.87
2019-05-23T01:54:51.856Z,10.87
2019-05-23T01:55:57.409Z,10.84
2019-05-23T01:57:02.951Z,10.84
2019-05-23T01:58:08.495Z,10.84
2019-05-23T01:59:14.040Z,10.83
2019-05-23T02:00:19.584Z,10.84
2019-05-23T02:01:25.135Z,10.83
2019-05-23T02:02:30.682Z,10.84
2019-05-23T02:03:36.221Z,10.88
2019-05-23T02:04:41.772Z,10.77
2019-05-23T02:05:47.317Z,10.73
2019-05-23T02:06:52.884Z,10.73
2019-05-23T02:07:58.412Z,10.85
2019-05-23T02:09:03.954Z,10.76
2019-05-23T02:10:09.503Z,10.80
2019-05-23T02:11:15.045Z,10.77
2019-05-23T02:12:20.629Z,10.76
2019-05-23T02:13:26.143Z,10.80
2019-05-23T02:14:31.691Z,10.79
2019-05-23T02:15:37.236Z,10.67
2019-05-23T02:16:42.781Z,10.76
2019-05-23T02:17:48.330Z,10.73
2019-05-23T02:18:53.872Z,10.77
2019-05-23T22:50:59.272Z,13.88
2019-05-23T22:52:04.714Z,13.87
2019-05-23T22:53:10.252Z,13.87
2019-05-23T22:54:15.804Z,13.84
2019-05-23T22:55:21.343Z,13.86
2019-05-23T22:56:26.893Z,13.90
2019-05-23T22:57:32.436Z,14.03
2019-05-23T22:58:37.983Z,14.06
2019-05-23T22:59:43.535Z,14.11
2019-05-23T23:00:49.071Z,14.20
2019-05-23T23:01:54.675Z,14.31
2019-05-23T23:03:00.172Z,14.27
2019-05-23T23:04:05.719Z,14.31
2019-05-23T23:05:11.273Z,14.41
2019-05-23T23:06:16.858Z,14.56
2019-05-23T23:07:22.368Z,14.57
2019-05-23T23:08:27.955Z,14.57
2019-05-23T23:09:33.458Z,14.67
2019-05-23T23:10:39.030Z,14.70
2019-05-23T23:11:44.558Z,14.70
2019-05-23T23:12:50.106Z,14.86
2019-05-23T23:13:55.665Z,14.77
2019-05-23T23:15:01.208Z,14.89
2019-05-23T23:16:06.755Z,14.90
2019-05-23T23:17:12.309Z,14.97
2019-05-23T23:18:17.862Z,14.94
2019-05-23T23:19:23.415Z,15.02
2019-05-23T23:20:28.956Z,15.08
2019-05-23T23:21:34.516Z,15.18
2019-05-23T23:22:40.062Z,15.25
2019-05-23T23:23:45.609Z,15.20
2019-05-23T23:24:51.161Z,15.22
2019-05-23T23:25:56.727Z,15.19
2019-05-23T23:27:02.263Z,15.25
2019-05-23T23:28:07.815Z,15.30
2019-05-23T23:29:13.362Z,15.26
2019-05-23T23:30:19.121Z,15.19
2019-05-23T23:31:33.484Z,15.20
2019-05-23T23:33:34.827Z,15.26
2019-05-23T23:34:48.916Z,15.30
2019-05-23T23:36:39.262Z,15.25
2019-05-23T23:37:44.765Z,15.25
2019-05-23T23:38:59.324Z,15.20
2019-05-23T23:41:00.537Z,15.27
2019-05-23T23:42:05.993Z,15.19
2019-05-23T23:43:11.287Z,15.19
2019-05-23T23:44:16.967Z,15.16
2019-05-23T23:45:22.353Z,15.15
2019-05-23T23:46:27.876Z,15.20
2019-05-23T23:47:33.424Z,15.20
2019-05-23T23:48:38.976Z,15.12
2019-05-23T23:49:44.524Z,15.12
2019-05-23T23:50:50.079Z,15.15
2019-05-23T23:51:55.624Z,15.13
2019-05-23T23:53:01.175Z,15.12
2019-05-23T23:54:06.729Z,15.12
2019-05-23T23:55:12.284Z,15.15
2019-05-23T23:56:17.829Z,15.19
2019-05-23T23:57:23.380Z,15.10
2019-05-23T23:58:28.936Z,15.07
2019-05-23T23:59:34.478Z,15.07
